createdAt,value
2018-07-22T00:00:36.880Z,88.29
2018-07-22T00:03:15.462Z,88.64
2018-07-22T00:05:47.448Z,88.76
2018-07-22T00:08:17.510Z,88.09
2018-07-22T00:10:49.598Z,88.95
2018-07-22T00:13:20.425Z,88.77
2018-07-22T00:15:50.913Z,88.89
2018-07-22T00:18:21.253Z,89.12
2018-07-22T00:20:51.353Z,89.39
2018-07-22T00:23:23.064Z,89.19
2018-07-22T00:25:53.563Z,88.63
2018-07-22T00:28:24.453Z,89.06
2018-07-22T00:30:54.933Z,89.47
2018-07-22T00:33:25.459Z,89.75
2018-07-22T00:35:57.290Z,89.35
2018-07-22T00:38:30.017Z,89.68
2018-07-22T00:41:00.579Z,90.08
2018-07-22T00:43:31.309Z,89.29
2018-07-22T00:46:02.395Z,89.35
2018-07-22T00:48:32.522Z,89.47
2018-07-22T00:51:05.301Z,89.75
2018-07-22T00:53:35.923Z,90.52
2018-07-22T00:56:06.166Z,90.00
2018-07-22T00:58:37.740Z,90.58
2018-07-22T01:01:11.014Z,90.05
2018-07-22T01:03:41.623Z,90.76
2018-07-22T01:06:12.283Z,90.58
2018-07-22T01:08:42.554Z,90.34
2018-07-22T01:11:12.943Z,90.65
2018-07-22T01:13:44.124Z,90.19
2018-07-22T01:16:15.298Z,90.50
2018-07-22T01:18:45.583Z,90.17
2018-07-22T01:21:15.697Z,90.65
2018-07-22T01:23:45.757Z,90.27
2018-07-22T01:26:17.104Z,90.16
2018-07-22T01:28:47.482Z,89.80
2018-07-22T01:31:18.346Z,90.87
2018-07-22T01:33:48.420Z,90.01
2018-07-22T01:36:19.123Z,90.77
2018-07-22T01:38:51.305Z,91.16
2018-07-22T01:41:22.293Z,90.19
2018-07-22T01:43:52.330Z,90.86
2018-07-22T01:46:22.922Z,90.46
2018-07-22T01:48:53.002Z,90.74
2018-07-22T01:51:23.044Z,91.54
2018-07-22T01:53:53.119Z,91.01
2018-07-22T01:56:23.177Z,91.06
2018-07-22T01:58:53.303Z,90.55
2018-07-22T02:01:23.789Z,91.25
2018-07-22T02:03:53.850Z,91.40
2018-07-22T02:06:24.169Z,91.40
2018-07-22T02:08:54.517Z,91.42
2018-07-22T02:11:24.886Z,91.43
2018-07-22T02:13:55.558Z,91.35
2018-07-22T02:17:29.160Z,90.83
2018-07-22T02:19:59.467Z,91.07
2018-07-22T02:22:29.689Z,91.26
2018-07-22T02:24:59.760Z,91.10
2018-07-22T02:27:30.273Z,91.86
2018-07-22T02:30:00.795Z,91.82
2018-07-22T02:32:31.275Z,90.87
2018-07-22T02:35:02.025Z,91.42
2018-07-22T02:37:32.308Z,91.85
2018-07-22T02:40:02.659Z,91.52
2018-07-22T02:42:32.711Z,91.36
2018-07-22T02:45:03.476Z,92.24
2018-07-22T02:47:35.130Z,91.39
2018-07-22T02:50:05.555Z,91.27
2018-07-22T02:52:37.471Z,91.11
2018-07-22T02:55:07.563Z,91.61
2018-07-22T02:57:37.604Z,91.96
2018-07-22T03:00:08.081Z,91.67
2018-07-22T03:02:41.590Z,91.18
2018-07-22T03:05:12.180Z,92.07
2018-07-22T03:07:42.576Z,91.16
2018-07-22T03:10:12.906Z,91.36
2018-07-22T03:12:43.583Z,92.34
2018-07-22T03:15:14.459Z,92.16
2018-07-22T03:17:44.525Z,91.85
2018-07-22T03:20:14.992Z,91.56
2018-07-22T03:22:45.157Z,92.41
2018-07-22T03:25:15.275Z,92.09
2018-07-22T03:27:45.409Z,91.47
2018-07-22T03:30:15.486Z,91.56
2018-07-22T03:32:46.045Z,91.68
2018-07-22T03:35:16.386Z,91.52
2018-07-22T03:37:46.806Z,91.78
2018-07-22T03:40:17.474Z,91.54
2018-07-22T03:42:47.893Z,91.62
2018-07-22T03:45:18.338Z,92.09
2018-07-22T03:47:49.008Z,92.01
2018-07-22T03:50:19.174Z,92.33
2018-07-22T03:52:49.205Z,91.74
2018-07-22T03:55:19.437Z,92.42
2018-07-22T03:57:49.910Z,92.00
2018-07-22T04:00:20.351Z,92.24
2018-07-22T04:02:50.513Z,91.98
2018-07-22T04:05:20.649Z,92.12
2018-07-22T04:07:50.772Z,91.31
2018-07-22T04:10:21.313Z,91.35
2018-07-22T04:12:51.369Z,91.17
2018-07-22T04:15:21.741Z,91.10
2018-07-22T04:17:52.098Z,91.63
2018-07-22T04:20:24.769Z,92.03
2018-07-22T04:22:55.445Z,92.03
2018-07-22T04:25:26.327Z,92.25
2018-07-22T04:27:56.707Z,92.01
2018-07-22T04:30:26.782Z,92.22
2018-07-22T04:32:57.464Z,92.66
2018-07-22T04:35:28.167Z,91.56
2018-07-22T04:37:58.490Z,91.55
2018-07-22T04:40:28.718Z,92.14
2018-07-22T04:42:59.502Z,91.70
2018-07-22T04:45:29.615Z,91.43
2018-07-22T04:48:00.014Z,92.77
2018-07-22T04:50:30.949Z,92.31
2018-07-22T04:53:01.199Z,92.53
2018-07-22T04:55:31.278Z,92.03
2018-07-22T04:58:01.376Z,92.65
2018-07-22T05:00:31.754Z,92.19
2018-07-22T05:03:02.361Z,91.86
2018-07-22T05:05:32.633Z,92.66
2018-07-22T05:08:02.727Z,92.66
2018-07-22T05:10:32.855Z,91.78
2018-07-22T05:13:03.470Z,92.33
2018-07-22T05:15:34.425Z,91.69
2018-07-22T05:18:05.008Z,91.81
2018-07-22T05:20:35.328Z,90.86
2018-07-22T05:23:05.472Z,92.13
2018-07-22T05:25:35.587Z,92.04
2018-07-22T05:28:07.110Z,91.34
2018-07-22T05:30:37.507Z,91.60
2018-07-22T05:33:08.072Z,90.98
2018-07-22T05:35:38.183Z,91.69
2018-07-22T05:38:08.506Z,90.87
2018-07-22T05:40:38.969Z,91.37
2018-07-22T05:43:10.822Z,90.83
2018-07-22T05:45:40.961Z,91.28
2018-07-22T05:48:11.146Z,91.20
2018-07-22T05:50:43.326Z,90.95
2018-07-22T05:53:13.426Z,90.76
2018-07-22T05:55:44.409Z,90.25
2018-07-22T05:58:14.521Z,90.51
2018-07-22T06:00:45.441Z,90.87
2018-07-22T06:03:15.821Z,90.63
2018-07-22T06:06:04.262Z,90.42
2018-07-22T06:08:57.142Z,90.65
2018-07-22T06:11:33.080Z,90.60
2018-07-22T06:14:03.685Z,90.24
2018-07-22T06:16:33.957Z,90.92
2018-07-22T06:19:04.500Z,90.79
2018-07-22T06:21:34.823Z,90.27
2018-07-22T06:24:06.376Z,90.27
2018-07-22T06:26:39.710Z,90.77
2018-07-22T06:29:10.398Z,90.39
2018-07-22T06:31:40.626Z,90.98
2018-07-22T06:34:10.838Z,89.95
2018-07-22T06:36:41.813Z,89.43
2018-07-22T06:41:51.393Z,90.59
2018-07-22T06:44:21.829Z,90.08
2018-07-22T06:46:51.967Z,90.89
2018-07-22T06:49:22.000Z,90.24
2018-07-22T06:51:52.519Z,89.68
2018-07-22T06:54:22.750Z,89.18
2018-07-22T06:56:54.018Z,89.70
2018-07-22T06:59:25.008Z,90.52
2018-07-22T07:01:55.633Z,89.97
2018-07-22T07:04:26.562Z,90.26
2018-07-22T07:06:56.644Z,89.55
2018-07-22T07:09:27.174Z,90.29
2018-07-22T07:11:57.549Z,90.33
2018-07-22T07:14:27.907Z,90.42
2018-07-22T07:16:58.418Z,89.70
2018-07-22T07:19:28.797Z,88.80
2018-07-22T07:21:58.877Z,89.16
2018-07-22T07:27:04.938Z,89.93
2018-07-22T07:29:36.453Z,91.19
2018-07-22T07:32:07.289Z,90.60
2018-07-22T07:34:38.514Z,89.84
2018-07-22T07:37:09.521Z,88.88
2018-07-22T07:39:39.571Z,89.58
2018-07-22T07:42:09.923Z,90.06
2018-07-22T07:44:40.387Z,89.16
2018-07-22T07:47:10.462Z,90.21
2018-07-22T07:49:41.150Z,90.00
2018-07-22T07:52:12.509Z,89.29
2018-07-22T07:54:42.618Z,89.19
2018-07-22T07:57:12.683Z,89.55
2018-07-22T07:59:43.047Z,89.43
2018-07-22T08:02:13.367Z,88.28
2018-07-22T08:04:43.443Z,89.78
2018-07-22T08:07:13.992Z,89.29
2018-07-22T08:09:44.101Z,89.79
2018-07-22T08:12:14.662Z,88.83
2018-07-22T08:14:44.779Z,88.57
2018-07-22T08:17:15.761Z,89.26
2018-07-22T08:19:46.545Z,89.68
2018-07-22T08:22:16.704Z,89.93
2018-07-22T08:24:46.832Z,90.59
2018-07-22T08:27:16.886Z,89.46
2018-07-22T08:29:50.390Z,89.70
2018-07-22T08:32:22.331Z,89.95
2018-07-22T08:34:57.398Z,88.94
2018-07-22T08:37:27.508Z,88.82
2018-07-22T08:39:58.453Z,88.31
2018-07-22T08:42:29.504Z,89.41
2018-07-22T08:44:59.555Z,88.96
2018-07-22T08:47:32.350Z,89.18
2018-07-22T08:50:02.458Z,89.53
2018-07-22T08:52:33.027Z,89.29
2018-07-22T08:55:03.790Z,88.42
2018-07-22T08:57:33.888Z,88.76
2018-07-22T09:00:08.376Z,89.32
2018-07-22T09:02:38.602Z,89.73
2018-07-22T09:05:08.702Z,89.55
2018-07-22T09:07:39.132Z,90.11
2018-07-22T09:10:09.645Z,90.08
2018-07-22T09:12:41.773Z,89.17
2018-07-22T09:15:12.298Z,89.12
2018-07-22T09:17:43.005Z,89.15
2018-07-22T09:20:13.320Z,88.49
2018-07-22T09:22:44.091Z,87.75
2018-07-22T09:25:14.671Z,88.07
2018-07-22T09:27:45.529Z,88.67
2018-07-22T09:30:15.726Z,88.76
2018-07-22T09:32:45.937Z,88.50
2018-07-22T09:35:16.650Z,88.26
2018-07-22T09:37:46.749Z,89.04
2018-07-22T09:40:17.460Z,89.06
2018-07-22T09:42:48.399Z,87.06
2018-07-22T09:45:19.759Z,87.16
2018-07-22T09:47:50.014Z,86.93
2018-07-22T09:50:22.098Z,85.34
2018-07-22T09:52:52.606Z,87.22
2018-07-22T09:55:23.432Z,87.04
2018-07-22T09:57:53.781Z,86.99
2018-07-22T10:00:31.719Z,88.29
2018-07-22T10:03:02.188Z,85.01
2018-07-22T10:05:32.899Z,85.22
2018-07-22T10:08:04.925Z,86.02
2018-07-22T10:10:35.830Z,81.99
2018-07-22T10:13:06.884Z,81.42
2018-07-22T10:15:38.353Z,79.46
2018-07-22T10:18:11.288Z,81.87
2018-07-22T10:20:42.826Z,77.19
2018-07-22T10:23:13.478Z,78.67
2018-07-22T10:25:47.058Z,76.24
2018-07-22T10:28:17.357Z,77.60
2018-07-22T10:30:50.000Z,77.54
2018-07-22T10:33:20.638Z,76.26
2018-07-22T10:35:50.837Z,76.15
2018-07-22T10:38:21.225Z,75.46
2018-07-22T10:40:52.503Z,75.77
2018-07-22T10:43:24.657Z,75.51
2018-07-22T10:45:55.621Z,74.25
2018-07-22T10:48:27.355Z,75.14
2018-07-22T10:50:59.626Z,75.04
2018-07-22T10:53:29.993Z,72.92
2018-07-22T10:56:00.158Z,74.55
2018-07-22T10:58:30.530Z,74.98
2018-07-22T11:01:02.424Z,75.30
2018-07-22T11:03:34.632Z,73.14
2018-07-22T11:06:05.100Z,74.76
2018-07-22T11:08:36.930Z,73.44
2018-07-22T11:11:07.982Z,73.81
2018-07-22T11:13:40.095Z,73.80
2018-07-22T11:16:10.415Z,72.36
2018-07-22T11:18:44.846Z,72.46
2018-07-22T11:21:15.031Z,73.42
2018-07-22T11:23:46.429Z,71.06
2018-07-22T11:26:17.054Z,70.82
2018-07-22T11:28:48.356Z,69.75
2018-07-22T11:31:19.941Z,70.08
2018-07-22T11:33:55.397Z,71.32
2018-07-22T11:36:26.663Z,69.25
2018-07-22T11:38:57.690Z,67.36
2018-07-22T11:41:28.299Z,66.04
2018-07-22T11:43:59.706Z,67.72
2018-07-22T11:46:31.221Z,67.06
2018-07-22T11:49:09.711Z,65.48
2018-07-22T11:51:41.942Z,64.19
2018-07-22T11:54:13.782Z,63.47
2018-07-22T11:56:47.129Z,65.19
2018-07-22T11:59:17.364Z,65.64
2018-07-22T12:01:48.624Z,65.30
2018-07-22T12:04:19.418Z,65.24
2018-07-22T12:06:49.997Z,64.45
2018-07-22T12:09:23.607Z,64.49
2018-07-22T12:11:53.826Z,64.39
2018-07-22T12:14:25.895Z,62.55
2018-07-22T12:17:01.231Z,64.16
2018-07-22T12:19:34.315Z,63.42
2018-07-22T12:22:06.271Z,61.33
2018-07-22T12:24:39.921Z,63.38
2018-07-22T12:27:10.535Z,59.68
2018-07-22T12:29:41.253Z,60.14
2018-07-22T12:32:13.610Z,59.89
2018-07-22T12:34:44.241Z,60.11
2018-07-22T12:37:17.006Z,60.10
2018-07-22T12:39:47.512Z,60.50
2018-07-22T12:42:17.589Z,61.47
2018-07-22T12:44:48.047Z,61.08
2018-07-22T12:47:18.806Z,58.78
2018-07-22T12:49:51.205Z,59.00
2018-07-22T12:52:22.349Z,56.11
2018-07-22T12:54:55.544Z,58.66
2018-07-22T12:57:27.667Z,56.02
2018-07-22T13:00:01.505Z,57.38
2018-07-22T13:02:32.334Z,57.04
2018-07-22T13:05:03.787Z,58.60
2018-07-22T13:07:34.870Z,56.03
2018-07-22T13:10:06.233Z,57.04
2018-07-22T13:12:37.170Z,56.31
2018-07-22T13:15:08.440Z,57.97
2018-07-22T13:17:39.530Z,56.57
2018-07-22T13:20:10.044Z,57.85
2018-07-22T13:22:41.282Z,57.27
2018-07-22T13:25:16.415Z,56.21
2018-07-22T13:27:47.318Z,57.24
2018-07-22T13:30:17.564Z,58.38
2018-07-22T13:32:48.473Z,57.38
2018-07-22T13:35:19.071Z,57.35
2018-07-22T13:37:49.589Z,58.72
2018-07-22T13:40:20.023Z,58.78
2018-07-22T13:42:50.619Z,57.20
2018-07-22T13:45:22.849Z,58.68
2018-07-22T13:47:54.535Z,58.09
2018-07-22T13:50:25.935Z,59.35
2018-07-22T13:52:59.921Z,58.10
2018-07-22T13:55:31.550Z,58.28
2018-07-22T13:58:01.932Z,58.98
2018-07-22T14:00:32.221Z,58.91
2018-07-22T14:03:04.304Z,58.57
2018-07-22T14:05:36.513Z,59.07
2018-07-22T14:08:09.370Z,56.70
2018-07-22T14:10:39.860Z,53.94
2018-07-22T14:13:10.196Z,55.63
2018-07-22T14:15:43.414Z,53.72
2018-07-22T14:18:19.510Z,52.36
2018-07-22T14:20:50.507Z,50.69
2018-07-22T14:23:21.746Z,51.41
2018-07-22T14:25:55.491Z,50.68
2018-07-22T14:28:25.600Z,49.70
2018-07-22T14:30:56.525Z,50.37
2018-07-22T14:33:28.061Z,50.02
2018-07-22T14:35:59.725Z,48.49
2018-07-22T14:38:30.138Z,47.86
2018-07-22T14:41:03.695Z,48.36
2018-07-22T14:43:34.527Z,47.05
2018-07-22T14:46:10.475Z,47.00
2018-07-22T14:48:40.605Z,47.30
2018-07-22T14:51:12.436Z,45.23
2018-07-22T14:53:45.460Z,44.35
2018-07-22T14:56:16.241Z,45.72
2018-07-22T14:58:46.975Z,45.72
2018-07-22T15:01:19.599Z,46.78
2018-07-22T15:03:53.341Z,46.42
2018-07-22T15:06:26.226Z,48.02
2018-07-22T15:09:01.007Z,47.78
2018-07-22T15:11:31.894Z,48.64
2018-07-22T15:14:03.694Z,48.83
2018-07-22T15:16:37.581Z,47.18
2018-07-22T15:19:09.413Z,47.83
2018-07-22T15:21:40.213Z,48.18
2018-07-22T15:24:13.595Z,47.83
2018-07-22T15:26:45.136Z,47.08
2018-07-22T15:29:24.337Z,47.39
2018-07-22T15:31:57.543Z,46.51
2018-07-22T15:34:30.941Z,46.41
2018-07-22T15:37:02.421Z,45.11
2018-07-22T15:39:34.720Z,46.03
2018-07-22T15:42:11.652Z,47.27
2018-07-22T15:44:43.758Z,44.17
2018-07-22T15:47:14.191Z,43.96
2018-07-22T15:49:51.438Z,42.79
2018-07-22T15:52:24.566Z,43.82
2018-07-22T15:55:00.127Z,42.20
2018-07-22T15:57:36.098Z,42.71
2018-07-22T16:00:07.634Z,42.94
2018-07-22T16:02:38.318Z,42.36
2018-07-22T16:05:09.874Z,42.96
2018-07-22T16:07:40.551Z,40.92
2018-07-22T16:10:10.890Z,41.88
2018-07-22T16:12:41.079Z,42.01
2018-07-22T16:15:13.357Z,43.32
2018-07-22T16:17:46.537Z,42.58
2018-07-22T16:20:19.090Z,40.61
2018-07-22T16:22:50.666Z,41.03
2018-07-22T16:25:23.943Z,42.56
2018-07-22T16:27:55.041Z,42.20
2018-07-22T16:30:25.293Z,41.75
2018-07-22T16:32:56.583Z,41.13
2018-07-22T16:35:27.018Z,42.18
2018-07-22T16:37:59.017Z,40.99
2018-07-22T16:40:30.318Z,41.78
2018-07-22T16:43:00.537Z,42.00
2018-07-22T16:45:31.969Z,41.73
2018-07-22T16:48:03.066Z,41.55
2018-07-22T16:50:38.371Z,41.32
2018-07-22T16:53:09.561Z,41.90
2018-07-22T16:55:40.558Z,42.23
2018-07-22T16:58:10.783Z,41.25
2018-07-22T17:00:44.629Z,41.49
2018-07-22T17:03:14.694Z,40.83
2018-07-22T17:05:45.085Z,42.27
2018-07-22T17:08:15.201Z,42.39
2018-07-22T17:10:45.590Z,43.52
2018-07-22T17:13:16.218Z,43.15
2018-07-22T17:15:52.327Z,42.89
2018-07-22T17:18:30.290Z,44.33
2018-07-22T17:21:03.082Z,44.76
2018-07-22T17:23:33.261Z,44.18
2018-07-22T17:26:04.413Z,45.28
2018-07-22T17:28:36.961Z,44.90
2018-07-22T17:31:07.437Z,44.94
2018-07-22T17:37:25.917Z,45.86
2018-07-22T17:40:01.030Z,47.08
2018-07-22T17:42:33.688Z,48.01
2018-07-22T17:45:05.262Z,47.90
2018-07-22T17:47:37.399Z,46.95
2018-07-22T17:50:08.303Z,48.02
2018-07-22T17:52:42.858Z,48.54
2018-07-22T17:55:17.581Z,48.79
2018-07-22T17:57:50.522Z,48.58
2018-07-22T18:00:27.638Z,48.89
2018-07-22T18:03:25.885Z,49.20
2018-07-22T18:05:57.366Z,49.64
2018-07-22T18:08:29.378Z,50.78
2018-07-22T18:11:01.500Z,51.63
2018-07-22T18:13:33.630Z,51.12
2018-07-22T18:16:13.524Z,51.71
2018-07-22T18:18:43.914Z,50.99
2018-07-22T18:21:17.219Z,52.31
2018-07-22T18:23:48.668Z,51.87
2018-07-22T18:26:21.374Z,53.46
2018-07-22T18:28:52.185Z,54.41
2018-07-22T18:33:54.476Z,53.58
2018-07-22T18:36:25.619Z,53.89
2018-07-22T18:38:59.682Z,54.75
2018-07-22T18:41:32.477Z,55.77
2018-07-22T18:44:04.522Z,55.40
2018-07-22T18:46:36.525Z,57.53
2018-07-22T18:49:06.966Z,58.90
2018-07-22T18:51:39.075Z,58.14
2018-07-22T18:54:10.279Z,58.79
2018-07-22T18:56:43.238Z,58.44
2018-07-22T18:59:16.633Z,60.56
2018-07-22T19:01:48.146Z,61.93
2018-07-22T19:04:21.161Z,61.82
2018-07-22T19:06:56.857Z,61.80
2018-07-22T19:09:29.605Z,62.34
2018-07-22T19:12:07.481Z,63.62
2018-07-22T19:14:42.825Z,63.86
2018-07-22T19:17:14.390Z,65.49
2018-07-22T19:19:48.319Z,63.18
2018-07-22T19:22:23.764Z,64.50
2018-07-22T19:24:56.894Z,66.16
2018-07-22T19:27:29.335Z,65.52
2018-07-22T19:29:59.958Z,65.88
2018-07-22T19:32:30.568Z,65.86
2018-07-22T19:35:02.583Z,67.99
2018-07-22T19:37:34.994Z,66.87
2018-07-22T19:43:04.209Z,67.21
2018-07-22T19:45:42.313Z,67.96
2018-07-22T19:48:14.970Z,65.96
2018-07-22T19:50:46.792Z,67.01
2018-07-22T19:53:19.806Z,68.68
2018-07-22T19:55:50.609Z,68.78
2018-07-22T19:58:22.835Z,68.55
2018-07-22T20:00:55.608Z,67.73
2018-07-22T20:03:27.272Z,68.88
2018-07-22T20:05:58.494Z,67.84
2018-07-22T20:08:29.913Z,67.87
2018-07-22T20:11:00.991Z,69.67
2018-07-22T20:13:35.862Z,69.44
2018-07-22T20:16:42.213Z,69.62
2018-07-22T20:19:22.433Z,71.67
2018-07-22T20:21:54.537Z,69.90
2018-07-22T20:24:34.408Z,68.94
2018-07-22T20:27:07.230Z,69.97
2018-07-22T20:29:47.583Z,69.99
2018-07-22T20:32:24.368Z,69.87
2018-07-22T20:35:10.022Z,70.62
2018-07-22T20:37:43.075Z,70.90
2018-07-22T20:40:16.422Z,69.10
2018-07-22T20:42:56.189Z,71.10
2018-07-22T20:45:27.366Z,70.79
2018-07-22T20:48:01.502Z,69.95
2018-07-22T20:50:35.060Z,71.01
2018-07-22T20:53:07.457Z,70.55
2018-07-22T20:55:40.340Z,70.61
2018-07-22T20:58:10.985Z,70.36
2018-07-22T21:00:42.453Z,71.64
2018-07-22T21:03:14.248Z,71.90
2018-07-22T21:05:47.918Z,71.55
2018-07-22T21:08:21.054Z,71.83
2018-07-22T21:10:53.414Z,70.43
2018-07-22T21:13:25.653Z,70.64
2018-07-22T21:16:00.463Z,70.81
2018-07-22T21:18:35.227Z,71.71
2018-07-22T21:21:06.677Z,71.62
2018-07-22T21:23:38.409Z,70.36
2018-07-22T21:26:09.013Z,71.09
2018-07-22T21:28:41.146Z,70.76
2018-07-22T21:31:12.897Z,71.57
2018-07-22T21:33:43.565Z,71.19
2018-07-22T21:36:19.218Z,70.92
2018-07-22T21:38:51.423Z,72.04
2018-07-22T21:41:22.282Z,72.48
2018-07-22T21:43:54.251Z,72.69
2018-07-22T21:46:25.473Z,72.36
2018-07-22T21:48:58.513Z,72.10
2018-07-22T21:51:28.714Z,71.98
2018-07-22T21:54:00.537Z,71.80
2018-07-22T21:56:31.619Z,72.19
2018-07-22T21:59:03.716Z,71.89
2018-07-22T22:01:35.777Z,71.29
2018-07-22T22:04:06.449Z,72.74
2018-07-22T22:06:38.181Z,72.04
2018-07-22T22:09:09.609Z,72.08
2018-07-22T22:11:40.479Z,72.29
2018-07-22T22:14:11.650Z,73.11
2018-07-22T22:16:43.257Z,72.58
2018-07-22T22:19:17.850Z,72.51
2018-07-22T22:21:49.775Z,73.47
2018-07-22T22:24:20.666Z,73.28
2018-07-22T22:26:51.935Z,73.00
2018-07-22T22:29:22.255Z,74.15
2018-07-22T22:31:55.601Z,73.65
2018-07-22T22:34:29.650Z,74.15
2018-07-22T22:37:01.880Z,75.18
2018-07-22T22:39:33.825Z,75.49
2018-07-22T22:42:12.151Z,75.55
2018-07-22T22:44:45.250Z,75.97
2018-07-22T22:47:17.783Z,76.41
2018-07-22T22:49:52.532Z,76.52
2018-07-22T22:52:25.306Z,77.91
2018-07-22T22:54:59.290Z,78.18
2018-07-22T22:57:31.458Z,79.04
2018-07-22T23:00:03.584Z,79.71
2018-07-22T23:02:38.766Z,78.75
2018-07-22T23:05:15.257Z,78.88
2018-07-22T23:07:49.509Z,78.86
2018-07-22T23:10:21.685Z,79.26
2018-07-22T23:12:53.007Z,79.54
2018-07-22T23:15:23.314Z,81.08
2018-07-22T23:17:54.114Z,80.59
2018-07-22T23:20:25.517Z,80.27
2018-07-22T23:22:58.232Z,80.27
2018-07-22T23:25:29.606Z,79.76
2018-07-22T23:28:03.074Z,80.37
2018-07-22T23:30:36.271Z,80.72
2018-07-22T23:33:09.566Z,81.35
2018-07-22T23:35:41.207Z,80.87
2018-07-22T23:38:25.232Z,81.34
2018-07-22T23:41:01.346Z,79.83
2018-07-22T23:43:34.790Z,82.21
2018-07-22T23:46:07.091Z,81.12
2018-07-22T23:48:37.709Z,82.32
2018-07-22T23:51:09.481Z,80.76
2018-07-22T23:53:42.482Z,81.42
2018-07-22T23:56:15.304Z,82.15
2018-07-22T23:58:48.312Z,83.76
